Sherman, Nebraska
Current Conditions -  °F | °C
As of 7:35 AM on Thursday 18 Dec 2014 (Local Time) from KHDE Reporting Station
Overcast Overcast  
Wind Chill: 24°   Ceiling: 600
Heat Index: 24°   Visibility: 10mi
Dew Point: 23°   Wind: 0mph
Humidity: 93%   Direction: NA
Pressure: 30.13"   Gusts: NA
Location:  40.3942°N, 99.1223°W
Report Text: KHDE 181335Z AUTO 00000KT 10SM OVC006 M04/M05 A3013 RMK AO2 T10421052
Loading
Personal Weather Stations






























Interactive Weather Map New forecast layout! Learn more

10-Day Weather Forecast

Advertisements
Track Severe Weather on mobile